createdAt,value
2018-06-09T00:00:53.712Z,34.18
2018-06-09T00:03:27.588Z,35.58
2018-06-09T00:05:58.855Z,38.48
2018-06-09T00:08:31.411Z,34.48
2018-06-09T00:11:04.088Z,37.45
2018-06-09T00:13:50.400Z,36.08
2018-06-09T00:16:19.002Z,36.45
2018-06-09T00:18:47.528Z,37.17
2018-06-09T00:21:16.183Z,37.05
2018-06-09T00:23:45.735Z,35.98
2018-06-09T00:26:15.454Z,37.50
2018-06-09T00:28:44.045Z,38.85
2018-06-09T00:31:13.086Z,37.08
2018-06-09T00:33:42.280Z,38.33
2018-06-09T00:36:10.926Z,41.10
2018-06-09T00:41:35.388Z,39.23
2018-06-09T00:44:03.945Z,39.85
2018-06-09T00:46:32.461Z,41.70
2018-06-09T00:49:01.147Z,40.63
2018-06-09T00:51:29.656Z,41.40
2018-06-09T00:53:59.273Z,42.88
2018-06-09T00:56:39.254Z,45.05
2018-06-09T00:59:07.804Z,41.85
2018-06-09T01:01:36.313Z,41.65
2018-06-09T01:04:04.886Z,39.78
2018-06-09T01:06:33.491Z,40.70
2018-06-09T01:09:02.806Z,41.02
2018-06-09T01:11:31.322Z,41.55
2018-06-09T01:14:00.091Z,41.33
2018-06-09T01:16:28.568Z,40.52
2018-06-09T01:18:57.063Z,41.25
2018-06-09T01:21:25.584Z,41.35
2018-06-09T01:23:54.113Z,40.52
2018-06-09T01:26:22.662Z,41.10
2018-06-09T01:28:51.148Z,40.05
2018-06-09T01:31:19.377Z,42.33
2018-06-09T01:33:48.077Z,42.25
2018-06-09T01:36:17.066Z,42.20
2018-06-09T01:38:46.039Z,41.40
2018-06-09T01:41:14.638Z,42.80
2018-06-09T01:43:43.869Z,41.37
2018-06-09T01:46:12.802Z,40.15
2018-06-09T01:48:41.900Z,40.75
2018-06-09T01:51:10.738Z,41.73
2018-06-09T01:53:40.442Z,40.80
2018-06-09T01:56:09.028Z,38.98
2018-06-09T01:58:39.034Z,40.52
2018-06-09T02:01:07.535Z,39.98
2018-06-09T02:03:36.012Z,39.75
2018-06-09T02:06:04.617Z,38.78
2018-06-09T02:08:36.012Z,40.70
2018-06-09T02:11:11.284Z,39.60
2018-06-09T02:13:41.048Z,41.25
2018-06-09T02:16:09.643Z,39.50
2018-06-09T02:18:38.396Z,38.02
2018-06-09T02:21:07.017Z,37.93
2018-06-09T02:23:35.532Z,38.15
2018-06-09T02:26:04.105Z,37.70
2018-06-09T02:28:32.620Z,37.63
2018-06-09T02:31:01.209Z,36.58
2018-06-09T02:33:29.733Z,38.02
2018-06-09T02:36:07.760Z,39.92
2018-06-09T02:38:44.516Z,39.70
2018-06-09T02:41:14.704Z,39.78
2018-06-09T02:43:45.297Z,39.80
2018-06-09T02:46:14.674Z,40.30
2018-06-09T02:48:45.699Z,39.48
2018-06-09T02:51:17.525Z,40.50
2018-06-09T02:53:49.059Z,39.98
2018-06-09T02:56:20.101Z,39.45
2018-06-09T02:58:51.586Z,41.10
2018-06-09T03:01:21.882Z,41.80
2018-06-09T03:03:52.031Z,42.67
2018-06-09T03:06:20.682Z,41.55
2018-06-09T03:08:52.670Z,41.28
2018-06-09T03:11:21.838Z,42.30
2018-06-09T03:13:50.516Z,42.58
2018-06-09T03:16:20.064Z,43.17
2018-06-09T03:18:49.970Z,42.60
2018-06-09T03:21:19.602Z,44.48
2018-06-09T03:23:53.400Z,45.52
2018-06-09T03:26:37.307Z,46.02
2018-06-09T03:29:07.195Z,42.75
2018-06-09T03:31:36.893Z,43.80
2018-06-09T03:34:12.407Z,41.65
2018-06-09T03:36:46.823Z,41.65
2018-06-09T03:39:18.244Z,40.95
2018-06-09T03:41:48.885Z,41.42
2018-06-09T03:44:20.914Z,41.85
2018-06-09T03:46:52.110Z,38.15
2018-06-09T03:49:23.864Z,41.73
2018-06-09T03:51:53.971Z,41.20
2018-06-09T03:54:23.330Z,40.92
2018-06-09T03:56:52.148Z,40.08
2018-06-09T03:59:20.598Z,42.80
2018-06-09T04:01:49.755Z,43.48
2018-06-09T04:04:19.466Z,43.90
2018-06-09T04:06:49.507Z,42.03
2018-06-09T04:09:18.336Z,40.78
2018-06-09T04:11:48.636Z,40.20
2018-06-09T04:14:19.359Z,41.63
2018-06-09T04:19:44.733Z,40.88
2018-06-09T04:22:16.241Z,42.48
2018-06-09T04:24:45.301Z,39.88
2018-06-09T04:27:13.949Z,39.90
2018-06-09T04:29:54.136Z,40.00
2018-06-09T04:32:24.711Z,42.95
2018-06-09T04:34:53.783Z,40.10
2018-06-09T04:37:23.258Z,40.50
2018-06-09T04:39:54.256Z,38.73
2018-06-09T04:42:35.721Z,38.85
2018-06-09T04:45:11.163Z,37.00
2018-06-09T04:47:40.986Z,38.17
2018-06-09T04:50:13.217Z,37.50
2018-06-09T04:52:46.034Z,37.17
2018-06-09T04:55:16.615Z,40.95
2018-06-09T04:57:47.282Z,41.55
2018-06-09T05:00:17.160Z,46.50
2018-06-09T05:02:45.827Z,44.00
2018-06-09T05:05:23.358Z,42.23
2018-06-09T05:07:53.093Z,42.50
2018-06-09T05:10:23.856Z,44.05
2018-06-09T05:12:54.254Z,46.02
2018-06-09T05:15:23.353Z,46.55
2018-06-09T05:17:53.506Z,45.05
2018-06-09T05:20:25.830Z,45.43
2018-06-09T05:22:55.520Z,46.90
2018-06-09T05:25:24.098Z,46.13
2018-06-09T05:27:53.581Z,48.83
2018-06-09T05:30:22.769Z,45.80
2018-06-09T05:32:55.842Z,47.78
2018-06-09T05:35:26.893Z,47.17
2018-06-09T05:37:57.826Z,46.23
2018-06-09T05:40:26.794Z,44.93
2018-06-09T05:42:55.340Z,47.58
2018-06-09T05:45:25.870Z,42.62
2018-06-09T05:47:55.636Z,41.77
2018-06-09T05:50:25.744Z,41.42
2018-06-09T05:52:54.285Z,45.98
2018-06-09T05:55:24.379Z,44.35
2018-06-09T05:57:54.115Z,42.48
2018-06-09T06:00:22.672Z,44.10
2018-06-09T06:02:53.697Z,42.62
2018-06-09T06:05:24.416Z,41.20
2018-06-09T06:07:52.901Z,40.98
2018-06-09T06:10:23.288Z,41.83
2018-06-09T06:12:53.767Z,40.70
2018-06-09T06:15:23.213Z,41.08
2018-06-09T06:17:51.690Z,39.65
2018-06-09T06:20:20.926Z,41.30
2018-06-09T06:22:49.604Z,39.67
2018-06-09T06:25:20.102Z,39.90
2018-06-09T06:27:50.297Z,39.65
2018-06-09T06:30:18.861Z,37.38
2018-06-09T06:32:49.705Z,37.15
2018-06-09T06:35:18.270Z,36.10
2018-06-09T06:37:47.587Z,36.40
2018-06-09T06:40:17.642Z,36.53
2018-06-09T06:42:51.622Z,35.13
2018-06-09T06:45:20.286Z,35.52
2018-06-09T06:47:52.213Z,35.00
2018-06-09T06:50:21.947Z,34.20
2018-06-09T06:52:53.277Z,37.25
2018-06-09T06:55:24.869Z,34.35
2018-06-09T06:57:54.965Z,35.58
2018-06-09T07:00:27.532Z,33.88
2018-06-09T07:02:56.661Z,33.85
2018-06-09T07:05:25.266Z,33.15
2018-06-09T07:07:53.763Z,30.57
2018-06-09T07:10:22.320Z,30.43
2018-06-09T07:12:50.851Z,30.23
2018-06-09T07:15:19.371Z,29.48
2018-06-09T07:17:47.894Z,29.50
2018-06-09T07:20:16.933Z,28.98
2018-06-09T07:22:45.946Z,33.55
2018-06-09T07:25:14.521Z,34.03
2018-06-09T07:27:47.464Z,33.78
2018-06-09T07:30:16.647Z,35.13
2018-06-09T07:32:45.834Z,32.05
2018-06-09T07:35:16.815Z,34.48
2018-06-09T07:37:46.404Z,33.98
2018-06-09T07:40:15.785Z,32.67
2018-06-09T07:42:46.669Z,34.23
2018-06-09T07:45:16.771Z,31.02
2018-06-09T07:47:45.654Z,30.68
2018-06-09T07:50:16.639Z,29.85
2018-06-09T07:52:51.486Z,28.12
2018-06-09T07:55:23.439Z,26.45
2018-06-09T07:57:52.238Z,25.43
2018-06-09T08:00:21.484Z,26.02
2018-06-09T08:02:51.692Z,24.92
2018-06-09T08:05:20.329Z,23.55
2018-06-09T08:07:48.952Z,21.80
2018-06-09T08:10:19.200Z,22.40
2018-06-09T08:12:48.549Z,22.65
2018-06-09T08:15:17.932Z,21.68
2018-06-09T08:17:58.798Z,24.40
2018-06-09T08:20:27.735Z,22.10
2018-06-09T08:22:58.898Z,22.67
2018-06-09T08:25:38.190Z,21.15
2018-06-09T08:28:10.380Z,19.35
2018-06-09T08:30:41.327Z,21.12
2018-06-09T08:33:12.016Z,20.05
2018-06-09T08:35:43.319Z,19.37
2018-06-09T08:38:14.925Z,20.75
2018-06-09T08:40:51.452Z,20.00
2018-06-09T08:43:26.342Z,17.57
2018-06-09T08:45:55.458Z,17.23
2018-06-09T08:48:27.462Z,20.00
2018-06-09T08:50:57.940Z,17.70
2018-06-09T08:53:26.758Z,17.27
2018-06-09T08:55:57.229Z,17.27
2018-06-09T08:58:26.633Z,18.32
2018-06-09T09:00:55.655Z,17.27
2018-06-09T09:03:24.217Z,18.73
2018-06-09T09:05:53.564Z,18.62
2018-06-09T09:08:24.294Z,16.90
2018-06-09T09:10:58.415Z,17.77
2018-06-09T09:13:26.720Z,17.32
2018-06-09T09:15:55.947Z,20.35
2018-06-09T09:18:25.321Z,19.65
2018-06-09T09:20:55.425Z,17.77
2018-06-09T09:23:24.104Z,16.17
2018-06-09T09:25:53.631Z,17.77
2018-06-09T09:28:27.818Z,19.10
2018-06-09T09:31:04.287Z,16.73
2018-06-09T09:33:35.888Z,16.57
2018-06-09T09:36:06.972Z,15.80
2018-06-09T09:38:39.969Z,15.18
2018-06-09T09:41:10.190Z,15.98
2018-06-09T09:51:39.622Z,15.85
2018-06-09T09:54:11.814Z,13.83
2018-06-09T09:56:49.815Z,13.40
2018-06-09T09:59:26.297Z,13.25
2018-06-09T10:01:56.729Z,13.45
2018-06-09T10:04:25.413Z,12.78
2018-06-09T10:06:54.177Z,12.35
2018-06-09T10:09:24.164Z,11.68
2018-06-09T10:11:53.771Z,11.75
2018-06-09T10:14:26.065Z,11.18
2018-06-09T10:17:40.756Z,11.63
2018-06-09T10:20:12.464Z,11.00
2018-06-09T10:22:52.329Z,11.33
2018-06-09T10:25:21.587Z,10.23
2018-06-09T10:27:51.005Z,10.55
2018-06-09T10:30:20.549Z,11.15
2018-06-09T10:32:50.309Z,10.82
2018-06-09T10:35:20.203Z,11.25
2018-06-09T10:37:48.738Z,10.85
2018-06-09T10:40:19.905Z,11.03
2018-06-09T10:42:48.536Z,11.85
2018-06-09T10:45:17.939Z,11.00
2018-06-09T10:47:49.284Z,11.85
2018-06-09T10:52:55.615Z,11.05
2018-06-09T10:55:24.785Z,12.00
2018-06-09T10:57:53.868Z,12.33
2018-06-09T11:00:23.108Z,12.98
2018-06-09T11:02:53.506Z,12.53
2018-06-09T11:05:23.086Z,13.15
2018-06-09T11:07:54.516Z,12.43
2018-06-09T11:10:24.008Z,12.50
2018-06-09T11:12:56.056Z,11.95
2018-06-09T11:15:26.498Z,11.20
2018-06-09T11:17:57.939Z,10.68
2018-06-09T11:20:28.739Z,10.32
2018-06-09T11:22:58.132Z,10.05
2018-06-09T11:25:26.699Z,10.38
2018-06-09T11:28:01.831Z,9.55
2018-06-09T11:30:33.553Z,12.07
2018-06-09T11:33:07.566Z,11.33
2018-06-09T11:35:45.876Z,10.60
2018-06-09T11:38:16.051Z,11.43
2018-06-09T11:45:45.415Z,12.23
2018-06-09T11:48:14.081Z,12.47
2018-06-09T11:50:47.096Z,13.40
2018-06-09T11:53:21.235Z,12.95
2018-06-09T11:55:57.082Z,11.57
2018-06-09T11:58:25.633Z,12.15
2018-06-09T12:00:57.729Z,12.98
2018-06-09T12:03:26.407Z,12.07
2018-06-09T12:05:56.432Z,12.23
2018-06-09T12:08:41.166Z,13.05
2018-06-09T12:11:12.444Z,12.55
2018-06-09T12:13:45.129Z,12.85
2018-06-09T12:16:13.779Z,12.60
2018-06-09T12:18:42.516Z,10.72
2018-06-09T12:21:14.037Z,11.63
2018-06-09T12:23:42.596Z,12.00
2018-06-09T12:26:14.809Z,11.95
2018-06-09T12:28:50.677Z,12.58
2018-06-09T12:31:20.694Z,12.50
2018-06-09T12:33:50.861Z,11.50
2018-06-09T12:36:20.676Z,13.20
2018-06-09T12:38:50.282Z,11.90
2018-06-09T12:41:20.510Z,11.75
2018-06-09T12:43:51.658Z,11.73
2018-06-09T12:46:28.421Z,11.95
2018-06-09T12:48:57.675Z,12.47
2018-06-09T12:51:27.511Z,11.40
2018-06-09T12:53:57.818Z,11.40
2018-06-09T12:56:26.287Z,11.40
2018-06-09T12:58:55.627Z,11.05
2018-06-09T13:01:26.201Z,10.40
2018-06-09T13:03:55.216Z,10.53
2018-06-09T13:06:25.548Z,9.73
2018-06-09T13:08:55.318Z,9.80
2018-06-09T13:11:28.412Z,11.00
2018-06-09T13:13:57.008Z,12.23
2018-06-09T13:16:25.173Z,14.38
2018-06-09T13:18:53.800Z,13.83
2018-06-09T13:21:24.315Z,15.32
2018-06-09T13:23:55.222Z,14.28
2018-06-09T13:26:39.583Z,13.72
2018-06-09T13:29:08.196Z,12.33
2018-06-09T13:31:39.624Z,13.13
2018-06-09T13:34:09.580Z,12.93
2018-06-09T13:36:40.641Z,11.80
2018-06-09T13:39:10.162Z,11.70
2018-06-09T13:41:39.166Z,12.55
2018-06-09T13:44:09.041Z,11.97
2018-06-09T13:46:38.268Z,12.90
2018-06-09T13:49:08.260Z,12.60
2018-06-09T13:51:47.253Z,11.68
2018-06-09T13:54:36.613Z,11.20
2018-06-09T13:57:12.736Z,11.57
2018-06-09T13:59:42.852Z,11.80
2018-06-09T14:02:13.809Z,12.00
2018-06-09T14:04:47.100Z,12.03
2018-06-09T14:07:19.332Z,12.20
2018-06-09T14:09:49.072Z,12.78
2018-06-09T14:12:19.768Z,12.68
2018-06-09T14:14:48.525Z,11.90
2018-06-09T14:17:17.179Z,12.37
2018-06-09T14:19:46.915Z,11.90
2018-06-09T14:22:17.742Z,12.28
2018-06-09T14:24:57.403Z,11.10
2018-06-09T14:27:28.203Z,11.00
2018-06-09T14:29:57.744Z,11.73
2018-06-09T14:32:26.302Z,11.53
2018-06-09T14:34:54.923Z,12.15
2018-06-09T14:37:23.762Z,12.47
2018-06-09T14:39:53.127Z,12.33
2018-06-09T14:42:22.054Z,11.55
2018-06-09T14:44:56.957Z,12.80
2018-06-09T14:47:25.925Z,11.70
2018-06-09T14:49:57.808Z,12.47
2018-06-09T14:52:30.547Z,12.30
2018-06-09T14:55:06.785Z,11.70
2018-06-09T14:57:41.205Z,12.13
2018-06-09T15:00:28.831Z,12.58
2018-06-09T15:02:58.537Z,11.97
2018-06-09T15:05:27.040Z,13.00
2018-06-09T15:07:55.985Z,12.45
2018-06-09T15:10:24.604Z,12.80
2018-06-09T15:12:53.917Z,12.80
2018-06-09T15:15:22.999Z,12.53
2018-06-09T15:17:51.570Z,11.80
2018-06-09T15:20:20.388Z,12.37
2018-06-09T15:22:49.602Z,12.93
2018-06-09T15:25:18.944Z,12.93
2018-06-09T15:27:47.592Z,12.80
2018-06-09T15:30:17.071Z,13.08
2018-06-09T15:32:46.871Z,13.05
2018-06-09T15:35:15.487Z,12.70
2018-06-09T15:37:49.085Z,13.18
2018-06-09T15:40:18.270Z,13.78
2018-06-09T15:42:47.777Z,14.00
2018-06-09T15:45:19.221Z,14.07
2018-06-09T15:50:48.573Z,13.50
2018-06-09T15:53:17.236Z,13.78
2018-06-09T15:55:46.615Z,12.88
2018-06-09T15:58:15.555Z,13.15
2018-06-09T16:00:44.135Z,13.32
2018-06-09T16:03:12.840Z,13.18
2018-06-09T16:05:41.430Z,13.18
2018-06-09T16:08:10.895Z,14.28
2018-06-09T16:10:40.920Z,14.43
2018-06-09T16:13:09.712Z,14.40
2018-06-09T16:15:39.790Z,15.43
2018-06-09T16:18:09.234Z,14.58
2018-06-09T16:20:38.407Z,14.50
2018-06-09T16:23:08.647Z,14.60
2018-06-09T16:25:50.243Z,14.15
2018-06-09T16:28:18.993Z,14.78
2018-06-09T16:30:48.652Z,14.65
2018-06-09T16:33:17.544Z,14.40
2018-06-09T16:35:46.694Z,14.05
2018-06-09T16:38:16.566Z,14.25
2018-06-09T16:40:54.467Z,14.43
2018-06-09T16:43:25.115Z,13.08
2018-06-09T16:45:53.759Z,14.90
2018-06-09T16:48:22.413Z,14.50
2018-06-09T16:50:51.239Z,13.32
2018-06-09T16:53:22.034Z,14.03
2018-06-09T16:55:50.788Z,13.38
2018-06-09T16:58:19.236Z,14.00
2018-06-09T17:00:48.383Z,14.30
2018-06-09T17:03:19.200Z,13.98
2018-06-09T17:05:47.860Z,12.88
2018-06-09T17:08:16.338Z,13.28
2018-06-09T17:10:45.621Z,12.95
2018-06-09T17:13:14.153Z,13.35
2018-06-09T17:15:43.973Z,13.68
2018-06-09T17:18:14.664Z,12.73
2018-06-09T17:20:43.213Z,14.45
2018-06-09T17:23:11.998Z,13.90
2018-06-09T17:25:42.189Z,13.65
2018-06-09T17:28:13.609Z,13.65
2018-06-09T17:30:47.342Z,12.75
2018-06-09T17:33:16.280Z,12.58
2018-06-09T17:35:44.840Z,15.15
2018-06-09T17:38:19.072Z,14.25
2018-06-09T17:40:48.229Z,14.30
2018-06-09T17:43:16.971Z,14.38
2018-06-09T17:45:47.253Z,15.48
2018-06-09T17:48:16.187Z,14.15
2018-06-09T17:50:45.164Z,13.88
2018-06-09T17:56:09.918Z,15.25
2018-06-09T17:58:38.886Z,14.90
2018-06-09T18:01:07.440Z,15.03
2018-06-09T18:03:36.066Z,14.40
2018-06-09T18:06:04.664Z,15.63
2018-06-09T18:08:33.494Z,14.80
2018-06-09T18:11:03.007Z,15.53
2018-06-09T18:13:31.786Z,15.43
2018-06-09T18:16:01.064Z,15.10
2018-06-09T18:18:30.433Z,15.38
2018-06-09T18:21:00.693Z,15.20
2018-06-09T18:23:29.932Z,14.43
2018-06-09T18:25:58.909Z,15.25
2018-06-09T18:28:29.046Z,14.98
2018-06-09T18:30:57.755Z,15.25
2018-06-09T18:33:26.037Z,16.02
2018-06-09T18:35:55.316Z,16.25
2018-06-09T18:38:23.876Z,16.62
2018-06-09T18:40:52.979Z,16.02
2018-06-09T18:43:21.516Z,15.88
2018-06-09T18:45:49.989Z,16.25
2018-06-09T18:48:18.568Z,15.25
2018-06-09T18:50:47.147Z,16.12
2018-06-09T18:53:15.728Z,16.12
2018-06-09T18:55:44.447Z,16.70
2018-06-09T18:58:13.434Z,17.23
2018-06-09T19:00:41.956Z,16.80
2018-06-09T19:03:10.666Z,16.05
2018-06-09T19:05:40.416Z,16.82
2018-06-09T19:08:08.925Z,16.87
2018-06-09T19:10:37.613Z,17.30
2018-06-09T19:13:06.151Z,16.45
2018-06-09T19:18:30.997Z,12.65
2018-06-09T19:20:59.726Z,11.83
2018-06-09T19:23:28.415Z,10.60
2018-06-09T19:25:56.953Z,10.68
2018-06-09T19:28:25.538Z,10.32
2018-06-09T19:30:54.550Z,9.60
2018-06-09T19:33:23.083Z,9.70
2018-06-09T19:35:51.594Z,9.23
2018-06-09T19:38:20.102Z,14.47
2018-06-09T19:40:48.641Z,8.45
2018-06-09T19:43:17.122Z,8.00
2018-06-09T19:45:45.656Z,7.40
2018-06-09T19:48:14.153Z,7.95
2018-06-09T19:50:42.616Z,7.65
2018-06-09T19:53:11.131Z,7.30
2018-06-09T19:55:39.968Z,7.55
2018-06-09T19:58:08.485Z,6.78
2018-06-09T20:00:37.096Z,5.72
2018-06-09T20:03:05.666Z,5.78
2018-06-09T20:05:34.175Z,5.78
2018-06-09T20:08:02.896Z,6.08
2018-06-09T20:10:31.636Z,6.05
2018-06-09T20:13:00.231Z,6.25
2018-06-09T20:15:40.210Z,7.05
2018-06-09T20:18:11.424Z,7.15
2018-06-09T20:20:43.429Z,7.90
2018-06-09T20:23:13.995Z,8.20
2018-06-09T20:25:42.660Z,7.78
2018-06-09T20:28:13.704Z,7.20
2018-06-09T20:30:42.394Z,7.17
2018-06-09T20:33:12.051Z,7.15
2018-06-09T20:35:41.764Z,7.35
2018-06-09T20:38:11.782Z,7.25
2018-06-09T20:40:43.167Z,7.95
2018-06-09T20:43:11.892Z,8.23
2018-06-09T20:45:41.673Z,8.13
2018-06-09T20:48:11.917Z,9.55
2018-06-09T20:50:41.369Z,9.15
2018-06-09T20:53:11.640Z,9.28
2018-06-09T20:55:43.403Z,8.98
2018-06-09T20:58:14.033Z,7.83
2018-06-09T21:00:45.643Z,8.05
2018-06-09T21:03:15.486Z,7.45
2018-06-09T21:05:46.804Z,6.95
2018-06-09T21:08:15.788Z,7.05
2018-06-09T21:10:45.910Z,7.50
2018-06-09T21:13:16.154Z,7.72
2018-06-09T21:15:51.698Z,8.03
2018-06-09T21:18:24.539Z,7.17
2018-06-09T21:20:54.705Z,7.05
2018-06-09T21:23:25.271Z,7.50
2018-06-09T21:25:55.135Z,7.53
2018-06-09T21:28:26.374Z,7.83
2018-06-09T21:32:05.469Z,7.58
2018-06-09T21:34:52.143Z,7.90
2018-06-09T21:37:27.733Z,7.33
2018-06-09T21:40:06.501Z,9.05
2018-06-09T21:42:44.630Z,8.90
2018-06-09T21:45:18.543Z,9.23
2018-06-09T21:47:48.392Z,9.25
2018-06-09T21:50:19.385Z,7.58
2018-06-09T21:52:48.803Z,7.83
2018-06-09T21:55:18.373Z,8.13
2018-06-09T21:57:47.311Z,8.60
2018-06-09T22:00:17.298Z,8.05
2018-06-09T22:02:46.060Z,7.30
2018-06-09T22:05:17.597Z,7.85
2018-06-09T22:07:48.670Z,7.65
2018-06-09T22:10:18.343Z,8.45
2018-06-09T22:12:47.759Z,8.28
2018-06-09T22:15:17.326Z,8.18
2018-06-09T22:17:46.053Z,7.90
2018-06-09T22:20:15.592Z,9.58
2018-06-09T22:22:45.093Z,9.65
2018-06-09T22:25:19.626Z,9.68
2018-06-09T22:27:49.654Z,8.45
2018-06-09T22:30:19.061Z,9.58
2018-06-09T22:32:47.638Z,8.20
2018-06-09T22:35:16.971Z,7.72
2018-06-09T22:37:46.494Z,7.03
2018-06-09T22:40:19.069Z,6.83
2018-06-09T22:42:50.592Z,6.90
2018-06-09T22:45:21.925Z,7.20
2018-06-09T22:47:51.385Z,7.90
2018-06-09T22:50:21.088Z,7.17
2018-06-09T22:52:51.029Z,8.08
2018-06-09T22:55:19.663Z,8.15
2018-06-09T22:57:48.279Z,8.70
2018-06-09T23:00:27.100Z,9.10
2018-06-09T23:02:55.903Z,8.85
2018-06-09T23:05:26.796Z,8.10
2018-06-09T23:07:56.613Z,9.13
2018-06-09T23:10:26.243Z,9.18
2018-06-09T23:13:10.771Z,10.23
2018-06-09T23:22:35.423Z,10.20
2018-06-09T23:25:08.894Z,9.58
2018-06-09T23:27:40.389Z,9.53
2018-06-09T23:30:28.700Z,9.45
2018-06-09T23:32:59.559Z,9.23
2018-06-09T23:35:28.804Z,10.80
2018-06-09T23:38:03.054Z,9.88
2018-06-09T23:40:33.391Z,10.25
2018-06-09T23:43:10.616Z,10.08
2018-06-09T23:45:41.611Z,10.03
2018-06-09T23:48:13.203Z,10.58
2018-06-09T23:50:44.821Z,10.58
2018-06-09T23:53:14.114Z,10.82
2018-06-09T23:55:43.866Z,11.28
2018-06-09T23:58:15.025Z,11.83
